createdAt,value
2023-02-19T00:01:35.675Z,101165.66
2023-02-19T00:04:05.701Z,101180.13
2023-02-19T00:06:34.095Z,101183.72
2023-02-19T00:09:00.868Z,101162.69
2023-02-19T00:32:56.325Z,101154.25
2023-02-19T00:35:23.022Z,101157.53
2023-02-19T00:37:49.435Z,101157.75
2023-02-19T00:40:15.909Z,101156.41
2023-02-19T00:42:42.370Z,101140.22
2023-02-19T00:45:08.948Z,101113.34
2023-02-19T00:47:35.342Z,101160.56
2023-02-19T00:50:01.774Z,101136.03
2023-02-19T01:32:51.301Z,101107.13
2023-02-19T01:35:17.924Z,101131.13
2023-02-19T01:37:44.353Z,101150.44
2023-02-19T01:40:10.875Z,101162.75
2023-02-19T01:42:37.284Z,101131.78
2023-02-19T01:45:22.990Z,101173.03
2023-02-19T01:48:30.362Z,101171.25
2023-02-19T01:51:04.279Z,101147.31
2023-02-19T01:53:34.446Z,101140.22
2023-02-19T01:56:02.012Z,101167.06
2023-02-19T01:58:33.380Z,101161.84
2023-02-19T02:01:02.743Z,101148.78
2023-02-19T02:03:29.906Z,101135.28
2023-02-19T02:06:02.117Z,101165.34
2023-02-19T02:08:48.849Z,101169.00
2023-02-19T02:11:15.474Z,101139.66
2023-02-19T02:13:42.559Z,101163.53
2023-02-19T02:16:15.257Z,101162.59
2023-02-19T02:19:14.335Z,101170.56
2023-02-19T02:21:52.770Z,101135.00
2023-02-19T02:24:34.266Z,101171.72
2023-02-19T02:27:28.474Z,101171.19
2023-02-19T02:30:10.486Z,101161.38
2023-02-19T02:54:31.258Z,101170.94
2023-02-19T02:56:59.244Z,101160.75
2023-02-19T02:59:30.286Z,101143.81
2023-02-19T03:02:10.865Z,101150.53
2023-02-19T03:05:01.436Z,101177.44
2023-02-19T03:07:33.948Z,101145.31
2023-02-19T03:10:05.394Z,101167.91
2023-02-19T03:12:53.375Z,101166.28
2023-02-19T03:15:38.729Z,101163.75
2023-02-19T03:18:28.421Z,101162.94
2023-02-19T03:20:57.750Z,101163.44
2023-02-19T03:23:48.158Z,101172.25
2023-02-19T03:26:17.427Z,101183.22
2023-02-19T03:29:04.814Z,101192.41
2023-02-19T03:31:33.094Z,101189.72
2023-02-19T03:34:03.268Z,101181.66
2023-02-19T03:36:35.679Z,101199.41
2023-02-19T03:39:06.343Z,101189.25
2023-02-19T03:41:47.185Z,101196.72
2023-02-19T03:44:54.987Z,101206.19
2023-02-19T03:47:29.323Z,101175.38
2023-02-19T03:50:06.649Z,101178.31
2023-02-19T04:14:30.706Z,101157.78
2023-02-19T04:17:08.880Z,101084.34
2023-02-19T04:19:41.206Z,101175.53
2023-02-19T04:22:20.873Z,101160.81
2023-02-19T04:24:50.162Z,101188.88
2023-02-19T04:27:18.498Z,101234.13
2023-02-19T04:29:45.151Z,101189.84
2023-02-19T04:32:13.964Z,101248.59
2023-02-19T04:34:40.811Z,101261.66
2023-02-19T04:37:07.595Z,101251.94
2023-02-19T04:39:34.100Z,101260.16
2023-02-19T04:42:00.556Z,101262.97
2023-02-19T04:44:27.110Z,101268.19
2023-02-19T04:46:53.538Z,101270.69
2023-02-19T04:49:19.980Z,101293.88
2023-02-19T04:51:49.337Z,101282.91
2023-02-19T06:03:29.554Z,101370.66
2023-02-19T06:05:57.449Z,101387.50
2023-02-19T06:08:23.980Z,101297.16
2023-02-19T06:10:52.120Z,101334.72
2023-02-19T06:13:18.733Z,101325.81
2023-02-19T06:15:58.487Z,101403.88
2023-02-19T06:18:24.881Z,101389.34
2023-02-19T06:20:51.293Z,101390.44
2023-02-19T06:23:17.739Z,101382.06
2023-02-19T06:25:44.212Z,101348.72
2023-02-19T06:28:24.849Z,101420.47
2023-02-19T06:30:51.623Z,101351.75
2023-02-19T06:33:18.133Z,101429.72
2023-02-19T06:35:44.589Z,101412.53
2023-02-19T06:38:10.988Z,101432.97
2023-02-19T06:40:37.487Z,101429.31
2023-02-19T06:43:03.974Z,101436.44
2023-02-19T06:45:30.367Z,101443.72
2023-02-19T06:47:56.848Z,101448.28
2023-02-19T06:50:23.306Z,101451.84
2023-02-19T07:14:18.603Z,101536.53
2023-02-19T07:16:47.228Z,101550.75
2023-02-19T07:19:15.334Z,101540.25
2023-02-19T07:21:42.367Z,101565.00
2023-02-19T07:24:09.860Z,101571.94
2023-02-19T07:26:39.262Z,101567.31
2023-02-19T07:29:06.641Z,101582.34
2023-02-19T07:31:33.351Z,101578.53
2023-02-19T07:33:59.910Z,101596.75
2023-02-19T07:36:26.358Z,101584.38
2023-02-19T07:38:57.782Z,101589.31
2023-02-19T07:41:25.490Z,101606.91
2023-02-19T07:43:52.179Z,101596.44
2023-02-19T07:51:43.878Z,101607.91
2023-02-19T07:54:11.525Z,101623.28
2023-02-19T07:56:37.959Z,101608.50
2023-02-19T07:59:05.259Z,101628.41
2023-02-19T08:01:50.244Z,101634.44
2023-02-19T08:04:16.747Z,101649.91
2023-02-19T08:06:43.720Z,101666.78
2023-02-19T08:09:13.244Z,101654.75
2023-02-19T08:12:05.593Z,101649.31
2023-02-19T08:19:48.360Z,101655.25
2023-02-19T08:22:16.288Z,101662.09
2023-02-19T08:24:42.989Z,101689.88
2023-02-19T08:27:09.669Z,101687.41
2023-02-19T08:29:36.447Z,101697.59
2023-02-19T08:34:38.360Z,101703.84
2023-02-19T08:37:04.869Z,101682.94
2023-02-19T08:39:32.468Z,101680.34
2023-02-19T08:41:58.885Z,101684.34
2023-02-19T08:44:25.562Z,101701.84
2023-02-19T08:46:52.005Z,101701.63
2023-02-19T08:49:20.654Z,101708.94
2023-02-19T08:51:47.090Z,101719.94
2023-02-19T08:54:14.905Z,101697.97
2023-02-19T08:56:41.383Z,101718.03
2023-02-19T08:59:07.772Z,101718.03
2023-02-19T09:01:34.540Z,101704.72
2023-02-19T09:04:01.120Z,101733.19
2023-02-19T09:06:27.773Z,101743.94
2023-02-19T09:08:54.396Z,101711.56
2023-02-19T09:11:20.895Z,101764.25
2023-02-19T09:16:51.368Z,101760.59
2023-02-19T09:21:53.458Z,101775.13
2023-02-19T09:24:20.743Z,101766.09
2023-02-19T09:26:54.894Z,101782.44
2023-02-19T09:29:26.272Z,101790.56
2023-02-19T09:32:00.092Z,101802.31
2023-02-19T09:34:28.027Z,101796.38
2023-02-19T09:36:55.076Z,101793.66
2023-02-19T09:39:21.536Z,101796.38
2023-02-19T09:41:51.779Z,101816.69
2023-02-19T09:44:33.484Z,101812.72
2023-02-19T09:47:01.747Z,101788.09
2023-02-19T09:49:33.593Z,101838.03
2023-02-19T09:52:03.136Z,101845.03
2023-02-19T10:02:39.270Z,101873.28
2023-02-19T10:05:14.369Z,101886.66
2023-02-19T10:07:47.233Z,101894.09
2023-02-19T10:12:52.631Z,101887.13
2023-02-19T10:15:46.778Z,101899.03
2023-02-19T10:18:17.034Z,101895.00
2023-02-19T10:20:43.797Z,101888.41
2023-02-19T10:23:19.138Z,101880.44
2023-02-19T10:25:54.170Z,101832.31
2023-02-19T10:28:25.756Z,101861.25
2023-02-19T10:30:58.922Z,101885.81
2023-02-19T10:33:30.024Z,101914.56
2023-02-19T10:35:58.201Z,101922.09
2023-02-19T10:38:29.424Z,101870.16
2023-02-19T10:41:04.153Z,101905.94
2023-02-19T10:43:37.016Z,101912.91
2023-02-19T10:46:07.755Z,101898.47
2023-02-19T10:48:42.332Z,101939.16
2023-02-19T10:51:13.032Z,101923.38
2023-02-19T10:54:19.017Z,101934.81
2023-02-19T10:56:46.225Z,101935.69
2023-02-19T10:59:18.942Z,101934.97
2023-02-19T11:01:55.231Z,101948.31
2023-02-19T11:04:21.783Z,101925.69
2023-02-19T11:06:48.371Z,101945.97
2023-02-19T11:09:38.037Z,101914.56
2023-02-19T11:12:05.852Z,101941.88
2023-02-19T11:14:34.464Z,101936.09
2023-02-19T11:17:05.587Z,101949.06
2023-02-19T11:19:39.285Z,101953.44
2023-02-19T11:22:40.075Z,101882.94
2023-02-19T11:28:07.073Z,101938.53
2023-02-19T11:30:45.119Z,101826.75
2023-02-19T11:33:19.510Z,101887.06
2023-02-19T11:35:48.103Z,101911.84
2023-02-19T11:38:21.957Z,101858.69
2023-02-19T11:48:55.756Z,101943.25
2023-02-19T11:51:37.070Z,101939.38
2023-02-19T11:54:35.884Z,101942.56
2023-02-19T11:57:28.445Z,101947.09
2023-02-19T12:00:15.836Z,101956.47
2023-02-19T12:02:49.388Z,101950.97
2023-02-19T12:05:31.968Z,101949.72
2023-02-19T12:08:19.910Z,101954.94
2023-02-19T12:11:14.499Z,101947.22
2023-02-19T12:13:59.818Z,101955.38
2023-02-19T12:16:42.014Z,101960.50
2023-02-19T12:19:15.116Z,101967.22
2023-02-19T12:27:13.264Z,101969.41
2023-02-19T12:29:52.559Z,101923.34
2023-02-19T12:33:23.895Z,101960.91
2023-02-19T12:36:42.224Z,101951.38
2023-02-19T12:39:37.376Z,101963.88
2023-02-19T12:42:09.953Z,101970.50
2023-02-19T12:44:42.438Z,101970.38
2023-02-19T12:47:16.862Z,101960.78
2023-02-19T12:50:02.339Z,101967.63
2023-02-19T12:52:36.715Z,101961.13
2023-02-19T12:55:26.290Z,101958.50
2023-02-19T12:57:54.814Z,101961.00
2023-02-19T13:00:43.907Z,101975.19
2023-02-19T13:03:22.574Z,101934.00
2023-02-19T13:06:10.071Z,101922.22
2023-02-19T13:08:39.576Z,101978.91
2023-02-19T13:11:32.245Z,101935.25
2023-02-19T13:14:06.089Z,101975.41
2023-02-19T13:16:37.383Z,101975.34
2023-02-19T13:19:05.203Z,101993.81
2023-02-19T13:22:55.232Z,101927.09
2023-02-19T13:25:22.597Z,101978.22
2023-02-19T13:27:55.785Z,101981.50
2023-02-19T13:30:28.922Z,101987.19
2023-02-19T13:33:26.836Z,101995.47
2023-02-19T13:36:15.948Z,101994.22
2023-02-19T13:38:47.091Z,101995.34
2023-02-19T13:41:39.276Z,101944.88
2023-02-19T13:44:19.095Z,101975.19
2023-02-19T13:46:59.516Z,101938.75
2023-02-19T13:49:26.031Z,102009.03
2023-02-19T13:51:56.581Z,102019.09
2023-02-19T13:54:35.926Z,102018.50
2023-02-19T13:57:24.245Z,102013.63
2023-02-19T13:59:51.822Z,102008.94
2023-02-19T14:02:21.441Z,102014.84
2023-02-19T14:04:55.607Z,102019.81
2023-02-19T14:07:35.203Z,102028.22
2023-02-19T14:10:03.115Z,102012.47
2023-02-19T14:12:35.160Z,102031.06
2023-02-19T14:15:39.357Z,102043.50
2023-02-19T14:18:43.184Z,102056.66
2023-02-19T14:21:23.290Z,102046.88
2023-02-19T14:23:56.068Z,102044.13
2023-02-19T14:26:24.185Z,101998.34
2023-02-19T14:28:52.874Z,102020.19
2023-02-19T14:32:22.873Z,101994.66
2023-02-19T14:35:22.810Z,101930.53
2023-02-19T14:37:52.100Z,101997.91
2023-02-19T14:40:23.430Z,102018.16
2023-02-19T14:42:53.261Z,102007.56
2023-02-19T14:45:21.155Z,102010.47
2023-02-19T14:47:49.041Z,102004.06
2023-02-19T14:50:26.963Z,102004.81
2023-02-19T14:52:58.415Z,102011.56
2023-02-19T14:55:37.864Z,101996.69
2023-02-19T14:58:16.570Z,102008.00
2023-02-19T15:00:43.386Z,101991.06
2023-02-19T15:03:33.006Z,101982.53
2023-02-19T15:07:19.989Z,101936.22
2023-02-19T15:09:21.910Z,101908.00
2023-02-19T15:11:51.650Z,101909.22
2023-02-19T15:14:23.731Z,101951.81
2023-02-19T15:16:58.177Z,101938.69
2023-02-19T15:19:24.796Z,101949.03
2023-02-19T15:21:51.832Z,101927.38
2023-02-19T15:24:19.327Z,101950.50
2023-02-19T15:26:51.900Z,101947.44
2023-02-19T15:29:21.260Z,101939.53
2023-02-19T15:31:53.127Z,101942.97
2023-02-19T15:34:30.735Z,101974.78
2023-02-19T15:37:01.010Z,101986.59
2023-02-19T15:39:35.852Z,101981.97
2023-02-19T15:42:06.188Z,101980.78
2023-02-19T15:44:56.921Z,101999.03
2023-02-19T15:47:36.902Z,101983.06
2023-02-19T15:50:31.708Z,101995.50
2023-02-19T15:53:14.636Z,101998.28
2023-02-19T15:55:47.315Z,101995.47
2023-02-19T15:58:29.819Z,101990.50
2023-02-19T16:01:00.961Z,102004.00
2023-02-19T16:03:28.766Z,101995.34
2023-02-19T16:05:59.525Z,101990.41
2023-02-19T16:08:36.918Z,102010.94
2023-02-19T16:11:27.498Z,102017.94
2023-02-19T16:14:16.486Z,102014.03
2023-02-19T16:16:44.856Z,102001.50
2023-02-19T16:19:11.695Z,101977.84
2023-02-19T16:21:53.111Z,101962.84
2023-02-19T16:24:35.882Z,102013.75
2023-02-19T16:27:10.366Z,101954.97
2023-02-19T16:29:37.382Z,101993.09
2023-02-19T16:32:09.692Z,101990.88
2023-02-19T16:34:54.930Z,101973.03
2023-02-19T16:37:34.506Z,102043.34
2023-02-19T16:40:07.253Z,102041.94
2023-02-19T16:42:55.209Z,102017.03
2023-02-19T16:45:27.441Z,102044.44
2023-02-19T16:47:54.061Z,102045.63
2023-02-19T16:50:26.749Z,101963.53
2023-02-19T16:52:58.651Z,102013.28
2023-02-19T16:55:37.825Z,101991.41
2023-02-19T16:58:04.408Z,101997.06
2023-02-19T17:00:32.028Z,102020.25
2023-02-19T17:03:08.943Z,102019.56
2023-02-19T17:05:37.014Z,102026.31
2023-02-19T17:08:23.646Z,102053.22
2023-02-19T17:10:54.091Z,102030.84
2023-02-19T17:13:24.931Z,102072.63
2023-02-19T17:15:56.727Z,102075.84
2023-02-19T17:18:25.662Z,102077.97
2023-02-19T17:21:16.253Z,102086.50
2023-02-19T17:23:44.998Z,102077.28
2023-02-19T17:26:17.041Z,102084.16
2023-02-19T17:28:43.596Z,102083.19
2023-02-19T17:31:11.427Z,102082.72
2023-02-19T17:33:38.861Z,102075.84
2023-02-19T17:36:06.030Z,102078.56
2023-02-19T17:38:32.775Z,102070.13
2023-02-19T17:41:42.577Z,102036.25
2023-02-19T17:44:11.961Z,102005.44
2023-02-19T17:46:38.571Z,102077.03
2023-02-19T17:49:05.232Z,102068.13
2023-02-19T17:51:31.729Z,102073.91
2023-02-19T17:53:58.180Z,102075.34
2023-02-19T17:56:26.603Z,102102.50
2023-02-19T17:58:54.140Z,102091.81
2023-02-19T18:01:21.473Z,102101.19
2023-02-19T18:03:47.976Z,102102.94
2023-02-19T18:06:14.703Z,102099.97
2023-02-19T18:08:50.441Z,102090.97
2023-02-19T18:11:17.518Z,102119.16
2023-02-19T18:13:44.026Z,102106.22
2023-02-19T18:16:16.665Z,102120.56
2023-02-19T18:18:44.731Z,102123.50
2023-02-19T18:21:18.490Z,102090.44
2023-02-19T18:23:46.683Z,102083.31
2023-02-19T18:26:21.821Z,102121.03
2023-02-19T18:28:51.369Z,102039.28
2023-02-19T18:31:18.005Z,102047.13
2023-02-19T18:33:44.656Z,102102.75
2023-02-19T18:36:12.473Z,102114.16
2023-02-19T18:38:39.347Z,102097.91
2023-02-19T18:41:06.398Z,102064.91
2023-02-19T18:43:41.177Z,102053.63
2023-02-19T18:46:09.354Z,102117.56
2023-02-19T18:48:36.190Z,102089.94
2023-02-19T18:51:02.697Z,102125.47
2023-02-19T18:53:31.271Z,102093.72
2023-02-19T18:58:45.700Z,102126.41
2023-02-19T19:01:13.926Z,102121.34
2023-02-19T19:03:40.765Z,102125.09
2023-02-19T19:06:14.740Z,102125.94
2023-02-19T19:08:43.485Z,102075.63
2023-02-19T19:14:04.566Z,102101.59
2023-02-19T19:16:31.235Z,102071.94
2023-02-19T19:18:59.642Z,102124.06
2023-02-19T19:21:26.169Z,102121.53
2023-02-19T19:23:53.158Z,102128.31
2023-02-19T19:26:19.766Z,102109.00
2023-02-19T19:28:46.566Z,102118.94
2023-02-19T19:31:15.851Z,102120.22
2023-02-19T19:33:43.476Z,102123.53
2023-02-19T19:36:11.540Z,102114.63
2023-02-19T19:38:38.167Z,102103.50
2023-02-19T19:41:05.426Z,102112.22
2023-02-19T19:43:33.344Z,102119.50
2023-02-19T19:46:00.273Z,102136.22
2023-02-19T19:48:27.642Z,102111.94
2023-02-19T19:50:56.740Z,102104.69
2023-02-19T19:53:23.997Z,102114.88
2023-02-19T19:55:50.498Z,102130.53
2023-02-19T19:58:20.900Z,102129.44
2023-02-19T20:01:36.023Z,102147.72
2023-02-19T20:04:11.556Z,102072.25
2023-02-19T20:06:44.377Z,102086.69
2023-02-19T20:09:11.293Z,102099.66
2023-02-19T20:11:53.318Z,102056.25
2023-02-19T20:14:22.178Z,102076.22
2023-02-19T20:16:50.533Z,102157.63
2023-02-19T20:19:18.502Z,102159.72
2023-02-19T20:21:50.529Z,102153.19
2023-02-19T20:24:19.657Z,102155.25
2023-02-19T20:26:46.433Z,102158.69
2023-02-19T20:29:12.887Z,102157.97
2023-02-19T20:31:39.823Z,102153.53
2023-02-19T20:34:06.277Z,102144.44
2023-02-19T20:36:32.857Z,102137.69
2023-02-19T20:38:59.270Z,102133.44
2023-02-19T20:41:25.753Z,102104.25
2023-02-19T20:43:59.699Z,102109.53
2023-02-19T20:46:26.174Z,102115.69
2023-02-19T20:48:52.702Z,102108.88
2023-02-19T20:51:19.124Z,102122.59
2023-02-19T20:53:45.560Z,102129.50
2023-02-19T20:56:12.689Z,102119.84
2023-02-19T20:58:42.123Z,102139.44
2023-02-19T21:01:09.249Z,102144.31
2023-02-19T21:03:35.689Z,102126.97
2023-02-19T21:06:02.197Z,102150.06
2023-02-19T21:08:28.618Z,102156.38
2023-02-19T21:10:56.254Z,102163.16
2023-02-19T21:13:23.145Z,102152.66
2023-02-19T21:15:49.606Z,102152.53
2023-02-19T21:18:17.371Z,102148.50
2023-02-19T21:20:43.743Z,102159.84
2023-02-19T21:23:10.185Z,102140.91
2023-02-19T21:25:37.850Z,102133.28
2023-02-19T21:28:05.279Z,102140.06
2023-02-19T21:30:31.704Z,102120.84
2023-02-19T21:32:58.150Z,102126.94
2023-02-19T21:35:24.597Z,102128.00
2023-02-19T21:37:50.994Z,102125.16
2023-02-19T21:40:17.531Z,102127.25
2023-02-19T21:42:44.613Z,102101.78
2023-02-19T21:45:11.197Z,102122.31
2023-02-19T21:47:37.621Z,102115.75
2023-02-19T21:50:04.553Z,102116.06
2023-02-19T21:52:31.123Z,102122.56
2023-02-19T21:54:58.071Z,102123.06
2023-02-19T21:57:24.504Z,102115.38
2023-02-19T21:59:50.900Z,102135.78
2023-02-19T22:02:20.199Z,102127.25
2023-02-19T22:04:46.898Z,102127.75
2023-02-19T22:07:13.398Z,102107.66
2023-02-19T22:09:39.895Z,102109.56
2023-02-19T22:12:06.470Z,102105.63
2023-02-19T22:14:32.890Z,102103.72
2023-02-19T22:16:59.293Z,102111.13
2023-02-19T22:19:25.692Z,102103.53
2023-02-19T22:21:52.095Z,102122.06
2023-02-19T22:24:21.753Z,102142.53
2023-02-19T22:26:50.603Z,102139.31
2023-02-19T22:29:17.536Z,102135.78
2023-02-19T22:31:44.175Z,102146.38
2023-02-19T22:34:10.810Z,102149.94
2023-02-19T22:36:37.357Z,102134.56
2023-02-19T22:39:06.042Z,102136.75
2023-02-19T22:41:32.538Z,102152.47
2023-02-19T22:44:00.148Z,102158.16
2023-02-19T22:46:30.336Z,102160.84
2023-02-19T22:48:57.702Z,102157.72
2023-02-19T22:51:24.947Z,102162.41
2023-02-19T22:53:54.325Z,102158.25
2023-02-19T22:56:27.925Z,102159.94
2023-02-19T22:58:56.295Z,102133.50
2023-02-19T23:01:23.928Z,102153.91
2023-02-19T23:03:52.865Z,102147.13
2023-02-19T23:06:25.698Z,102157.53
2023-02-19T23:08:53.652Z,102159.84
2023-02-19T23:11:23.562Z,102147.16
2023-02-19T23:13:50.161Z,102152.88
2023-02-19T23:16:16.772Z,102151.03
2023-02-19T23:18:43.361Z,102136.25
2023-02-19T23:21:09.898Z,102134.81
2023-02-19T23:23:36.280Z,102137.09
2023-02-19T23:26:04.160Z,102137.50
2023-02-19T23:28:30.648Z,102125.53
2023-02-19T23:30:57.186Z,102135.75
2023-02-19T23:33:23.883Z,102128.97
2023-02-19T23:35:50.288Z,102118.50
2023-02-19T23:38:16.867Z,102109.25
2023-02-19T23:40:43.344Z,102117.56
2023-02-19T23:43:09.755Z,102122.56
2023-02-19T23:45:36.148Z,102105.59
2023-02-19T23:48:02.904Z,102110.38
2023-02-19T23:50:29.332Z,102090.63
2023-02-19T23:52:59.327Z,102091.47
2023-02-19T23:55:26.743Z,102078.38
2023-02-19T23:57:53.574Z,102083.34
